sensor_id;sensor_type;location;lat;lon;timestamp;temperature;humidity
38848;DHT22;24602;44.780;20.408;2022-07-06T00:01:30;21.70;99.90
38848;DHT22;24602;44.780;20.408;2022-07-06T00:04:05;21.80;99.90
38848;DHT22;24602;44.780;20.408;2022-07-06T00:06:34;21.60;99.90
38848;DHT22;24602;44.780;20.408;2022-07-06T00:09:06;21.60;99.90
38848;DHT22;24602;44.780;20.408;2022-07-06T00:11:40;21.60;99.90
38848;DHT22;24602;44.780;20.408;2022-07-06T00:14:13;21.50;99.90
38848;DHT22;24602;44.780;20.408;2022-07-06T00:16:41;21.50;99.90
38848;DHT22;24602;44.780;20.408;2022-07-06T00:19:16;21.50;99.90
38848;DHT22;24602;44.780;20.408;2022-07-06T00:21:45;21.50;99.90
38848;DHT22;24602;44.780;20.408;2022-07-06T00:24:13;21.50;99.90
38848;DHT22;24602;44.780;20.408;2022-07-06T00:26:45;21.40;99.90
38848;DHT22;24602;44.780;20.408;2022-07-06T00:29:14;21.50;99.90
38848;DHT22;24602;44.780;20.408;2022-07-06T00:31:47;21.50;99.90
38848;DHT22;24602;44.780;20.408;2022-07-06T00:34:19;21.50;99.90
38848;DHT22;24602;44.780;20.408;2022-07-06T00:36:51;21.50;99.90
38848;DHT22;24602;44.780;20.408;2022-07-06T00:39:23;21.50;99.90
38848;DHT22;24602;44.780;20.408;2022-07-06T00:42:02;21.50;99.90
38848;DHT22;24602;44.780;20.408;2022-07-06T00:44:37;21.40;99.90
38848;DHT22;24602;44.780;20.408;2022-07-06T00:47:12;21.40;99.90
38848;DHT22;24602;44.780;20.408;2022-07-06T00:49:43;21.40;99.90
38848;DHT22;24602;44.780;20.408;2022-07-06T00:52:34;21.30;99.90
38848;DHT22;24602;44.780;20.408;2022-07-06T00:55:06;21.30;99.90
38848;DHT22;24602;44.780;20.408;2022-07-06T00:57:37;21.30;99.90
38848;DHT22;24602;44.780;20.408;2022-07-06T01:00:12;21.30;99.90
38848;DHT22;24602;44.780;20.408;2022-07-06T01:02:43;21.20;99.90
38848;DHT22;24602;44.780;20.408;2022-07-06T01:05:15;21.20;99.90
38848;DHT22;24602;44.780;20.408;2022-07-06T01:07:48;21.20;99.90
38848;DHT22;24602;44.780;20.408;2022-07-06T01:10:21;21.20;99.90
38848;DHT22;24602;44.780;20.408;2022-07-06T01:12:54;21.20;99.90
38848;DHT22;24602;44.780;20.408;2022-07-06T01:15:25;21.20;99.90
38848;DHT22;24602;44.780;20.408;2022-07-06T01:17:56;21.10;99.90
38848;DHT22;24602;44.780;20.408;2022-07-06T01:20:30;21.10;99.90
38848;DHT22;24602;44.780;20.408;2022-07-06T01:23:00;21.10;99.90
38848;DHT22;24602;44.780;20.408;2022-07-06T01:25:35;21.00;99.90
38848;DHT22;24602;44.780;20.408;2022-07-06T01:28:05;21.00;99.90
38848;DHT22;24602;44.780;20.408;2022-07-06T01:30:36;20.90;99.90
38848;DHT22;24602;44.780;20.408;2022-07-06T01:33:10;20.90;99.90
38848;DHT22;24602;44.780;20.408;2022-07-06T01:35:41;20.90;99.90
38848;DHT22;24602;44.780;20.408;2022-07-06T01:38:11;20.80;99.90
38848;DHT22;24602;44.780;20.408;2022-07-06T01:40:52;20.80;99.90
38848;DHT22;24602;44.780;20.408;2022-07-06T01:43:22;20.70;99.90
38848;DHT22;24602;44.780;20.408;2022-07-06T01:45:49;20.70;99.90
38848;DHT22;24602;44.780;20.408;2022-07-06T01:48:20;20.80;99.90
38848;DHT22;24602;44.780;20.408;2022-07-06T01:50:53;20.80;99.90
38848;DHT22;24602;44.780;20.408;2022-07-06T01:53:25;20.80;99.90
38848;DHT22;24602;44.780;20.408;2022-07-06T01:56:00;20.80;99.90
38848;DHT22;24602;44.780;20.408;2022-07-06T01:58:34;20.90;99.90
38848;DHT22;24602;44.780;20.408;2022-07-06T02:01:18;20.90;99.90
38848;DHT22;24602;44.780;20.408;2022-07-06T02:03:51;20.80;99.90
38848;DHT22;24602;44.780;20.408;2022-07-06T02:06:28;20.80;99.90
38848;DHT22;24602;44.780;20.408;2022-07-06T02:08:57;20.70;99.90
38848;DHT22;24602;44.780;20.408;2022-07-06T02:11:27;20.70;99.90
38848;DHT22;24602;44.780;20.408;2022-07-06T02:14:12;20.70;99.90
38848;DHT22;24602;44.780;20.408;2022-07-06T02:16:41;20.80;99.90
38848;DHT22;24602;44.780;20.408;2022-07-06T02:19:12;20.80;99.90
38848;DHT22;24602;44.780;20.408;2022-07-06T02:21:47;20.80;99.90
38848;DHT22;24602;44.780;20.408;2022-07-06T02:24:17;20.80;99.90
38848;DHT22;24602;44.780;20.408;2022-07-06T02:26:48;20.80;99.90
38848;DHT22;24602;44.780;20.408;2022-07-06T02:29:19;20.70;99.90
38848;DHT22;24602;44.780;20.408;2022-07-06T02:32:04;20.70;99.90
38848;DHT22;24602;44.780;20.408;2022-07-06T02:34:33;20.60;99.90
38848;DHT22;24602;44.780;20.408;2022-07-06T02:37:01;20.60;99.90
38848;DHT22;24602;44.780;20.408;2022-07-06T02:39:34;20.50;99.90
38848;DHT22;24602;44.780;20.408;2022-07-06T02:42:06;20.50;99.90
38848;DHT22;24602;44.780;20.408;2022-07-06T02:44:36;20.40;99.90
38848;DHT22;24602;44.780;20.408;2022-07-06T02:47:06;20.40;99.90
38848;DHT22;24602;44.780;20.408;2022-07-06T02:49:40;20.40;99.90
38848;DHT22;24602;44.780;20.408;2022-07-06T02:52:08;20.30;99.90
38848;DHT22;24602;44.780;20.408;2022-07-06T02:54:40;20.20;99.90
38848;DHT22;24602;44.780;20.408;2022-07-06T02:57:08;20.20;99.90
38848;DHT22;24602;44.780;20.408;2022-07-06T02:59:42;20.20;99.90
38848;DHT22;24602;44.780;20.408;2022-07-06T03:02:16;20.30;99.90
38848;DHT22;24602;44.780;20.408;2022-07-06T03:04:49;20.20;99.90
38848;DHT22;24602;44.780;20.408;2022-07-06T03:07:20;20.20;99.90
38848;DHT22;24602;44.780;20.408;2022-07-06T03:09:52;20.10;99.90
38848;DHT22;24602;44.780;20.408;2022-07-06T03:12:21;20.00;99.90
38848;DHT22;24602;44.780;20.408;2022-07-06T03:14:53;20.10;99.90
38848;DHT22;24602;44.780;20.408;2022-07-06T03:17:24;20.10;99.90
38848;DHT22;24602;44.780;20.408;2022-07-06T03:19:53;20.10;99.90
38848;DHT22;24602;44.780;20.408;2022-07-06T03:22:26;20.10;99.90
38848;DHT22;24602;44.780;20.408;2022-07-06T03:25:00;20.00;99.90
38848;DHT22;24602;44.780;20.408;2022-07-06T03:27:30;20.00;99.90
38848;DHT22;24602;44.780;20.408;2022-07-06T03:30:07;20.00;99.90
38848;DHT22;24602;44.780;20.408;2022-07-06T03:32:48;20.00;99.90
38848;DHT22;24602;44.780;20.408;2022-07-06T03:35:23;20.00;99.90
38848;DHT22;24602;44.780;20.408;2022-07-06T03:37:53;19.90;99.90
38848;DHT22;24602;44.780;20.408;2022-07-06T03:40:30;19.90;99.90
38848;DHT22;24602;44.780;20.408;2022-07-06T03:43:02;20.00;99.90
38848;DHT22;24602;44.780;20.408;2022-07-06T03:45:34;19.90;99.90
38848;DHT22;24602;44.780;20.408;2022-07-06T03:48:09;19.90;99.90
38848;DHT22;24602;44.780;20.408;2022-07-06T03:50:42;19.90;99.90
38848;DHT22;24602;44.780;20.408;2022-07-06T03:53:13;19.90;99.90
38848;DHT22;24602;44.780;20.408;2022-07-06T03:55:47;19.80;99.90
38848;DHT22;24602;44.780;20.408;2022-07-06T03:58:39;19.90;99.90
38848;DHT22;24602;44.780;20.408;2022-07-06T04:01:12;19.80;99.90
38848;DHT22;24602;44.780;20.408;2022-07-06T04:03:45;19.90;99.90
38848;DHT22;24602;44.780;20.408;2022-07-06T04:06:16;19.90;99.90
38848;DHT22;24602;44.780;20.408;2022-07-06T04:08:50;19.80;99.90
38848;DHT22;24602;44.780;20.408;2022-07-06T04:11:22;19.90;99.90
38848;DHT22;24602;44.780;20.408;2022-07-06T04:13:57;19.90;99.90
38848;DHT22;24602;44.780;20.408;2022-07-06T04:16:30;20.00;99.90
38848;DHT22;24602;44.780;20.408;2022-07-06T04:19:02;19.90;99.90
38848;DHT22;24602;44.780;20.408;2022-07-06T04:21:37;19.80;99.90
38848;DHT22;24602;44.780;20.408;2022-07-06T04:24:09;19.80;99.90
38848;DHT22;24602;44.780;20.408;2022-07-06T04:26:42;19.80;99.90
38848;DHT22;24602;44.780;20.408;2022-07-06T04:29:14;19.70;99.90
38848;DHT22;24602;44.780;20.408;2022-07-06T04:31:45;19.70;99.90
38848;DHT22;24602;44.780;20.408;2022-07-06T04:34:20;19.70;99.90
38848;DHT22;24602;44.780;20.408;2022-07-06T04:36:50;19.80;99.90
38848;DHT22;24602;44.780;20.408;2022-07-06T04:39:23;19.80;99.90
38848;DHT22;24602;44.780;20.408;2022-07-06T04:41:53;19.70;99.90
38848;DHT22;24602;44.780;20.408;2022-07-06T04:44:27;19.60;99.90
38848;DHT22;24602;44.780;20.408;2022-07-06T04:46:58;19.60;99.90
38848;DHT22;24602;44.780;20.408;2022-07-06T04:49:31;19.70;99.90
38848;DHT22;24602;44.780;20.408;2022-07-06T04:52:01;19.70;99.90
38848;DHT22;24602;44.780;20.408;2022-07-06T04:54:31;19.70;99.90
38848;DHT22;24602;44.780;20.408;2022-07-06T04:57:00;19.70;99.90
38848;DHT22;24602;44.780;20.408;2022-07-06T04:59:38;19.70;99.90
38848;DHT22;24602;44.780;20.408;2022-07-06T05:02:08;19.70;99.90
38848;DHT22;24602;44.780;20.408;2022-07-06T05:04:40;19.70;99.90
38848;DHT22;24602;44.780;20.408;2022-07-06T05:07:13;19.80;99.90
38848;DHT22;24602;44.780;20.408;2022-07-06T05:09:44;19.80;99.90
38848;DHT22;24602;44.780;20.408;2022-07-06T05:12:21;19.80;99.90
38848;DHT22;24602;44.780;20.408;2022-07-06T05:14:55;19.90;99.90
38848;DHT22;24602;44.780;20.408;2022-07-06T05:17:29;19.90;99.90
38848;DHT22;24602;44.780;20.408;2022-07-06T05:22:47;20.00;99.90
38848;DHT22;24602;44.780;20.408;2022-07-06T05:25:22;20.00;99.90
38848;DHT22;24602;44.780;20.408;2022-07-06T05:27:54;20.10;99.90
38848;DHT22;24602;44.780;20.408;2022-07-06T05:30:27;20.00;99.90
38848;DHT22;24602;44.780;20.408;2022-07-06T05:33:10;20.10;99.90
38848;DHT22;24602;44.780;20.408;2022-07-06T05:35:42;20.20;99.90
38848;DHT22;24602;44.780;20.408;2022-07-06T05:38:27;20.40;99.90
38848;DHT22;24602;44.780;20.408;2022-07-06T05:41:02;20.50;99.90
38848;DHT22;24602;44.780;20.408;2022-07-06T05:43:38;20.50;99.90
38848;DHT22;24602;44.780;20.408;2022-07-06T05:46:22;20.50;99.90
38848;DHT22;24602;44.780;20.408;2022-07-06T05:48:50;20.60;99.90
38848;DHT22;24602;44.780;20.408;2022-07-06T05:51:41;20.60;99.90
38848;DHT22;24602;44.780;20.408;2022-07-06T05:54:12;20.70;99.90
38848;DHT22;24602;44.780;20.408;2022-07-06T05:56:42;20.70;99.90
38848;DHT22;24602;44.780;20.408;2022-07-06T05:59:15;20.70;99.90
38848;DHT22;24602;44.780;20.408;2022-07-06T06:01:45;20.60;99.90
38848;DHT22;24602;44.780;20.408;2022-07-06T06:04:20;20.60;99.90
38848;DHT22;24602;44.780;20.408;2022-07-06T06:06:50;20.50;99.90
38848;DHT22;24602;44.780;20.408;2022-07-06T06:09:20;20.40;99.90
38848;DHT22;24602;44.780;20.408;2022-07-06T06:11:51;20.50;99.90
38848;DHT22;24602;44.780;20.408;2022-07-06T06:14:25;20.70;99.90
38848;DHT22;24602;44.780;20.408;2022-07-06T06:16:57;20.70;99.90
38848;DHT22;24602;44.780;20.408;2022-07-06T06:19:28;20.80;99.90
38848;DHT22;24602;44.780;20.408;2022-07-06T06:21:59;20.80;99.90
38848;DHT22;24602;44.780;20.408;2022-07-06T06:24:28;20.80;99.90
38848;DHT22;24602;44.780;20.408;2022-07-06T06:27:01;20.90;99.90
38848;DHT22;24602;44.780;20.408;2022-07-06T06:29:37;20.90;99.90
38848;DHT22;24602;44.780;20.408;2022-07-06T06:32:15;21.00;99.90
38848;DHT22;24602;44.780;20.408;2022-07-06T06:34:57;21.00;99.90
38848;DHT22;24602;44.780;20.408;2022-07-06T06:37:30;21.00;99.90
38848;DHT22;24602;44.780;20.408;2022-07-06T06:40:00;21.00;99.90
38848;DHT22;24602;44.780;20.408;2022-07-06T06:42:35;21.10;99.90
38848;DHT22;24602;44.780;20.408;2022-07-06T06:45:17;21.20;99.90
38848;DHT22;24602;44.780;20.408;2022-07-06T06:47:47;21.30;99.90
38848;DHT22;24602;44.780;20.408;2022-07-06T06:50:17;21.50;99.90
38848;DHT22;24602;44.780;20.408;2022-07-06T06:52:47;21.40;99.90
38848;DHT22;24602;44.780;20.408;2022-07-06T06:55:19;21.50;99.90
38848;DHT22;24602;44.780;20.408;2022-07-06T06:57:53;21.50;99.90
38848;DHT22;24602;44.780;20.408;2022-07-06T07:00:26;21.40;99.90
38848;DHT22;24602;44.780;20.408;2022-07-06T07:03:00;21.40;99.90
38848;DHT22;24602;44.780;20.408;2022-07-06T07:05:31;21.40;99.90
38848;DHT22;24602;44.780;20.408;2022-07-06T07:08:02;21.50;99.90
38848;DHT22;24602;44.780;20.408;2022-07-06T07:10:32;21.60;99.90
38848;DHT22;24602;44.780;20.408;2022-07-06T07:13:06;21.60;99.90
38848;DHT22;24602;44.780;20.408;2022-07-06T07:15:39;21.50;99.90
38848;DHT22;24602;44.780;20.408;2022-07-06T07:18:09;21.50;99.90
38848;DHT22;24602;44.780;20.408;2022-07-06T07:20:44;21.60;99.90
38848;DHT22;24602;44.780;20.408;2022-07-06T07:23:24;21.70;99.90
38848;DHT22;24602;44.780;20.408;2022-07-06T07:25:53;21.70;99.90
38848;DHT22;24602;44.780;20.408;2022-07-06T07:28:27;21.70;99.90
38848;DHT22;24602;44.780;20.408;2022-07-06T07:30:56;21.70;99.90
38848;DHT22;24602;44.780;20.408;2022-07-06T07:33:28;21.80;99.90
38848;DHT22;24602;44.780;20.408;2022-07-06T07:36:00;21.90;99.90
38848;DHT22;24602;44.780;20.408;2022-07-06T07:38:30;22.00;99.90
38848;DHT22;24602;44.780;20.408;2022-07-06T07:41:02;22.00;99.90
38848;DHT22;24602;44.780;20.408;2022-07-06T07:43:32;22.10;99.90
38848;DHT22;24602;44.780;20.408;2022-07-06T07:46:02;22.00;99.90
38848;DHT22;24602;44.780;20.408;2022-07-06T07:48:33;22.00;99.90
38848;DHT22;24602;44.780;20.408;2022-07-06T07:51:04;22.00;99.90
38848;DHT22;24602;44.780;20.408;2022-07-06T07:53:38;22.00;99.90
38848;DHT22;24602;44.780;20.408;2022-07-06T07:56:21;22.00;99.90
38848;DHT22;24602;44.780;20.408;2022-07-06T07:58:55;22.20;99.90
38848;DHT22;24602;44.780;20.408;2022-07-06T08:01:32;22.10;99.90
38848;DHT22;24602;44.780;20.408;2022-07-06T08:04:03;22.20;99.90
38848;DHT22;24602;44.780;20.408;2022-07-06T08:06:34;22.20;99.90
38848;DHT22;24602;44.780;20.408;2022-07-06T08:09:05;22.10;99.90
38848;DHT22;24602;44.780;20.408;2022-07-06T08:11:40;22.10;99.90
38848;DHT22;24602;44.780;20.408;2022-07-06T08:14:13;22.10;99.90
38848;DHT22;24602;44.780;20.408;2022-07-06T08:16:44;22.20;99.90
38848;DHT22;24602;44.780;20.408;2022-07-06T08:19:18;22.20;99.90
38848;DHT22;24602;44.780;20.408;2022-07-06T08:21:50;22.30;99.90
38848;DHT22;24602;44.780;20.408;2022-07-06T08:24:18;22.30;99.90
38848;DHT22;24602;44.780;20.408;2022-07-06T08:26:49;22.30;99.90
38848;DHT22;24602;44.780;20.408;2022-07-06T08:29:22;22.40;99.90
38848;DHT22;24602;44.780;20.408;2022-07-06T08:31:54;22.50;99.90
38848;DHT22;24602;44.780;20.408;2022-07-06T08:34:37;22.60;99.90
38848;DHT22;24602;44.780;20.408;2022-07-06T08:37:08;22.70;99.90
38848;DHT22;24602;44.780;20.408;2022-07-06T08:39:41;22.70;99.90
38848;DHT22;24602;44.780;20.408;2022-07-06T08:42:19;22.60;99.90
38848;DHT22;24602;44.780;20.408;2022-07-06T08:44:52;22.70;99.90
38848;DHT22;24602;44.780;20.408;2022-07-06T08:47:23;22.70;99.90
38848;DHT22;24602;44.780;20.408;2022-07-06T08:49:57;22.70;99.90
38848;DHT22;24602;44.780;20.408;2022-07-06T08:52:30;22.80;99.90
38848;DHT22;24602;44.780;20.408;2022-07-06T08:55:02;22.80;99.90
38848;DHT22;24602;44.780;20.408;2022-07-06T08:57:35;22.90;99.90
38848;DHT22;24602;44.780;20.408;2022-07-06T09:00:08;22.90;99.90
38848;DHT22;24602;44.780;20.408;2022-07-06T09:02:42;23.00;99.90
38848;DHT22;24602;44.780;20.408;2022-07-06T09:05:17;23.10;99.90
38848;DHT22;24602;44.780;20.408;2022-07-06T09:07:45;23.20;99.90
38848;DHT22;24602;44.780;20.408;2022-07-06T09:10:28;23.20;99.90
38848;DHT22;24602;44.780;20.408;2022-07-06T09:13:06;23.30;99.90
38848;DHT22;24602;44.780;20.408;2022-07-06T09:15:42;23.40;99.90
38848;DHT22;24602;44.780;20.408;2022-07-06T09:18:15;23.40;99.90
38848;DHT22;24602;44.780;20.408;2022-07-06T09:20:45;23.40;99.90
38848;DHT22;24602;44.780;20.408;2022-07-06T09:23:17;23.50;99.90
38848;DHT22;24602;44.780;20.408;2022-07-06T09:25:52;23.70;99.90
38848;DHT22;24602;44.780;20.408;2022-07-06T09:28:45;23.80;99.90
38848;DHT22;24602;44.780;20.408;2022-07-06T09:31:25;23.80;99.90
38848;DHT22;24602;44.780;20.408;2022-07-06T09:34:07;23.80;99.90
38848;DHT22;24602;44.780;20.408;2022-07-06T09:36:51;23.90;99.90
38848;DHT22;24602;44.780;20.408;2022-07-06T09:39:28;24.00;99.90
38848;DHT22;24602;44.780;20.408;2022-07-06T09:42:06;24.00;99.90
38848;DHT22;24602;44.780;20.408;2022-07-06T09:44:44;24.00;99.90
38848;DHT22;24602;44.780;20.408;2022-07-06T09:47:15;23.90;99.90
38848;DHT22;24602;44.780;20.408;2022-07-06T09:49:47;23.80;99.90
38848;DHT22;24602;44.780;20.408;2022-07-06T09:52:25;23.80;99.90
38848;DHT22;24602;44.780;20.408;2022-07-06T09:54:58;23.90;99.90
38848;DHT22;24602;44.780;20.408;2022-07-06T09:57:31;23.90;99.90
38848;DHT22;24602;44.780;20.408;2022-07-06T09:59:59;23.90;99.90
38848;DHT22;24602;44.780;20.408;2022-07-06T10:02:28;23.90;99.90
38848;DHT22;24602;44.780;20.408;2022-07-06T10:04:59;24.10;99.90
38848;DHT22;24602;44.780;20.408;2022-07-06T10:07:31;24.10;99.90
38848;DHT22;24602;44.780;20.408;2022-07-06T10:10:04;24.20;99.90
38848;DHT22;24602;44.780;20.408;2022-07-06T10:12:43;24.20;99.90
38848;DHT22;24602;44.780;20.408;2022-07-06T10:15:18;24.30;99.90
38848;DHT22;24602;44.780;20.408;2022-07-06T10:17:49;24.40;99.90
38848;DHT22;24602;44.780;20.408;2022-07-06T10:20:23;24.60;99.90
38848;DHT22;24602;44.780;20.408;2022-07-06T10:22:52;24.60;99.90
38848;DHT22;24602;44.780;20.408;2022-07-06T10:25:26;24.60;99.90
38848;DHT22;24602;44.780;20.408;2022-07-06T10:27:56;24.50;99.90
38848;DHT22;24602;44.780;20.408;2022-07-06T10:30:27;24.60;99.90
38848;DHT22;24602;44.780;20.408;2022-07-06T10:33:01;24.50;99.90
38848;DHT22;24602;44.780;20.408;2022-07-06T10:35:34;24.60;99.90
38848;DHT22;24602;44.780;20.408;2022-07-06T10:38:10;24.80;99.90
38848;DHT22;24602;44.780;20.408;2022-07-06T10:40:41;24.90;99.90
38848;DHT22;24602;44.780;20.408;2022-07-06T10:43:47;24.90;99.90
38848;DHT22;24602;44.780;20.408;2022-07-06T10:46:20;25.00;99.90
38848;DHT22;24602;44.780;20.408;2022-07-06T10:48:54;24.90;99.90
38848;DHT22;24602;44.780;20.408;2022-07-06T10:51:28;24.90;99.80
38848;DHT22;24602;44.780;20.408;2022-07-06T10:54:07;25.00;99.80
38848;DHT22;24602;44.780;20.408;2022-07-06T10:56:51;25.10;99.90
38848;DHT22;24602;44.780;20.408;2022-07-06T10:59:29;25.20;99.90
38848;DHT22;24602;44.780;20.408;2022-07-06T11:02:17;25.20;99.70
38848;DHT22;24602;44.780;20.408;2022-07-06T11:04:53;25.40;99.50
38848;DHT22;24602;44.780;20.408;2022-07-06T11:07:26;25.40;98.60
38848;DHT22;24602;44.780;20.408;2022-07-06T11:10:07;25.40;99.10
38848;DHT22;24602;44.780;20.408;2022-07-06T11:12:38;25.50;99.20
38848;DHT22;24602;44.780;20.408;2022-07-06T11:15:11;25.60;98.70
38848;DHT22;24602;44.780;20.408;2022-07-06T11:18:12;25.60;98.50
38848;DHT22;24602;44.780;20.408;2022-07-06T11:21:23;25.50;97.80
38848;DHT22;24602;44.780;20.408;2022-07-06T11:23:56;25.50;98.00
38848;DHT22;24602;44.780;20.408;2022-07-06T11:26:27;25.60;97.40
38848;DHT22;24602;44.780;20.408;2022-07-06T11:29:08;25.50;98.10
38848;DHT22;24602;44.780;20.408;2022-07-06T11:32:04;25.60;98.30
38848;DHT22;24602;44.780;20.408;2022-07-06T11:34:44;25.80;98.50
38848;DHT22;24602;44.780;20.408;2022-07-06T11:37:16;25.90;97.60
38848;DHT22;24602;44.780;20.408;2022-07-06T11:39:48;25.90;97.50
38848;DHT22;24602;44.780;20.408;2022-07-06T11:42:20;25.90;97.80
38848;DHT22;24602;44.780;20.408;2022-07-06T11:44:55;25.90;97.20
38848;DHT22;24602;44.780;20.408;2022-07-06T11:47:32;25.90;97.00
38848;DHT22;24602;44.780;20.408;2022-07-06T11:50:02;26.00;97.00
38848;DHT22;24602;44.780;20.408;2022-07-06T11:52:55;26.10;96.80
38848;DHT22;24602;44.780;20.408;2022-07-06T11:55:25;26.20;96.50
38848;DHT22;24602;44.780;20.408;2022-07-06T11:58:01;26.20;96.60
38848;DHT22;24602;44.780;20.408;2022-07-06T12:00:34;26.30;95.70
38848;DHT22;24602;44.780;20.408;2022-07-06T12:03:09;26.20;94.90
38848;DHT22;24602;44.780;20.408;2022-07-06T12:05:39;26.20;94.90
38848;DHT22;24602;44.780;20.408;2022-07-06T12:08:12;26.20;95.00
38848;DHT22;24602;44.780;20.408;2022-07-06T12:10:43;26.20;95.30
38848;DHT22;24602;44.780;20.408;2022-07-06T12:13:13;26.40;95.40
38848;DHT22;24602;44.780;20.408;2022-07-06T12:15:47;26.50;95.30
38848;DHT22;24602;44.780;20.408;2022-07-06T12:18:21;26.70;94.20
38848;DHT22;24602;44.780;20.408;2022-07-06T12:21:18;26.40;94.40
38848;DHT22;24602;44.780;20.408;2022-07-06T12:23:56;26.50;95.10
38848;DHT22;24602;44.780;20.408;2022-07-06T12:26:27;26.60;95.00
38848;DHT22;24602;44.780;20.408;2022-07-06T12:29:09;26.80;95.00
38848;DHT22;24602;44.780;20.408;2022-07-06T12:31:47;27.00;93.50
38848;DHT22;24602;44.780;20.408;2022-07-06T12:34:19;27.00;92.80
38848;DHT22;24602;44.780;20.408;2022-07-06T12:36:59;27.10;93.30
38848;DHT22;24602;44.780;20.408;2022-07-06T12:39:46;27.20;93.00
38848;DHT22;24602;44.780;20.408;2022-07-06T12:42:18;27.30;92.60
38848;DHT22;24602;44.780;20.408;2022-07-06T12:44:52;27.40;92.90
38848;DHT22;24602;44.780;20.408;2022-07-06T12:47:25;27.60;92.30
38848;DHT22;24602;44.780;20.408;2022-07-06T12:50:07;27.60;91.40
38848;DHT22;24602;44.780;20.408;2022-07-06T12:52:38;27.60;91.70
38848;DHT22;24602;44.780;20.408;2022-07-06T12:55:08;27.50;90.90
38848;DHT22;24602;44.780;20.408;2022-07-06T12:57:47;27.40;91.10
38848;DHT22;24602;44.780;20.408;2022-07-06T13:00:19;27.60;90.50
38848;DHT22;24602;44.780;20.408;2022-07-06T13:02:54;27.70;90.20
38848;DHT22;24602;44.780;20.408;2022-07-06T13:05:50;27.90;90.40
38848;DHT22;24602;44.780;20.408;2022-07-06T13:08:26;28.10;89.90
38848;DHT22;24602;44.780;20.408;2022-07-06T13:10:57;28.50;88.70
38848;DHT22;24602;44.780;20.408;2022-07-06T13:13:28;28.50;88.90
38848;DHT22;24602;44.780;20.408;2022-07-06T13:16:00;29.00;87.70
38848;DHT22;24602;44.780;20.408;2022-07-06T13:18:33;30.30;83.40
38848;DHT22;24602;44.780;20.408;2022-07-06T13:21:07;31.40;78.10
38848;DHT22;24602;44.780;20.408;2022-07-06T13:23:40;32.50;73.20
38848;DHT22;24602;44.780;20.408;2022-07-06T13:26:12;33.00;69.60
38848;DHT22;24602;44.780;20.408;2022-07-06T13:28:45;33.50;64.40
38848;DHT22;24602;44.780;20.408;2022-07-06T13:31:16;34.40;63.00
38848;DHT22;24602;44.780;20.408;2022-07-06T13:33:46;33.90;60.00
38848;DHT22;24602;44.780;20.408;2022-07-06T13:36:18;34.00;60.10
38848;DHT22;24602;44.780;20.408;2022-07-06T13:38:49;35.40;58.80
38848;DHT22;24602;44.780;20.408;2022-07-06T13:41:20;36.90;54.10
38848;DHT22;24602;44.780;20.408;2022-07-06T13:43:52;37.00;52.20
38848;DHT22;24602;44.780;20.408;2022-07-06T13:46:23;35.50;54.00
38848;DHT22;24602;44.780;20.408;2022-07-06T13:48:57;34.00;56.00
38848;DHT22;24602;44.780;20.408;2022-07-06T13:51:31;32.70;59.20
38848;DHT22;24602;44.780;20.408;2022-07-06T13:54:09;33.10;59.30
38848;DHT22;24602;44.780;20.408;2022-07-06T13:56:41;33.30;58.70
38848;DHT22;24602;44.780;20.408;2022-07-06T13:59:15;33.70;58.60
38848;DHT22;24602;44.780;20.408;2022-07-06T14:01:45;34.50;58.00
38848;DHT22;24602;44.780;20.408;2022-07-06T14:04:18;34.50;55.90
38848;DHT22;24602;44.780;20.408;2022-07-06T14:06:48;34.70;56.50
38848;DHT22;24602;44.780;20.408;2022-07-06T14:09:17;34.50;56.60
38848;DHT22;24602;44.780;20.408;2022-07-06T14:11:50;33.70;56.30
38848;DHT22;24602;44.780;20.408;2022-07-06T14:14:25;32.90;58.20
38848;DHT22;24602;44.780;20.408;2022-07-06T14:16:57;32.30;59.20
38848;DHT22;24602;44.780;20.408;2022-07-06T14:19:31;31.60;61.20
38848;DHT22;24602;44.780;20.408;2022-07-06T14:22:05;31.80;61.10
38848;DHT22;24602;44.780;20.408;2022-07-06T14:24:35;31.60;61.70
38848;DHT22;24602;44.780;20.408;2022-07-06T14:27:08;31.20;62.90
38848;DHT22;24602;44.780;20.408;2022-07-06T14:32:11;30.50;74.40
38848;DHT22;24602;44.780;20.408;2022-07-06T14:34:45;30.50;75.20
38848;DHT22;24602;44.780;20.408;2022-07-06T14:37:18;30.50;75.40
38848;DHT22;24602;44.780;20.408;2022-07-06T14:57:45;32.20;65.00
38848;DHT22;24602;44.780;20.408;2022-07-06T15:00:14;32.60;72.90
38848;DHT22;24602;44.780;20.408;2022-07-06T15:03:05;31.70;70.80
38848;DHT22;24602;44.780;20.408;2022-07-06T15:05:34;31.60;64.40
38848;DHT22;24602;44.780;20.408;2022-07-06T15:08:07;32.10;64.20
38848;DHT22;24602;44.780;20.408;2022-07-06T15:10:39;32.70;63.70
38848;DHT22;24602;44.780;20.408;2022-07-06T15:13:09;32.90;62.70
38848;DHT22;24602;44.780;20.408;2022-07-06T15:15:50;33.10;62.20
38848;DHT22;24602;44.780;20.408;2022-07-06T15:18:26;32.80;63.00
38848;DHT22;24602;44.780;20.408;2022-07-06T15:20:56;33.00;62.80
38848;DHT22;24602;44.780;20.408;2022-07-06T15:23:25;33.30;61.60
38848;DHT22;24602;44.780;20.408;2022-07-06T15:25:58;33.30;61.30
38848;DHT22;24602;44.780;20.408;2022-07-06T15:28:31;33.10;61.70
38848;DHT22;24602;44.780;20.408;2022-07-06T15:31:02;32.90;60.50
38848;DHT22;24602;44.780;20.408;2022-07-06T15:33:34;33.10;60.60
38848;DHT22;24602;44.780;20.408;2022-07-06T15:36:08;33.50;59.00
38848;DHT22;24602;44.780;20.408;2022-07-06T15:38:40;33.50;58.70
38848;DHT22;24602;44.780;20.408;2022-07-06T15:41:13;33.40;58.50
38848;DHT22;24602;44.780;20.408;2022-07-06T15:43:43;33.30;58.70
38848;DHT22;24602;44.780;20.408;2022-07-06T15:46:21;33.10;58.80
38848;DHT22;24602;44.780;20.408;2022-07-06T15:48:56;32.80;59.50
38848;DHT22;24602;44.780;20.408;2022-07-06T15:51:28;32.70;60.00
38848;DHT22;24602;44.780;20.408;2022-07-06T15:53:56;32.80;59.60
38848;DHT22;24602;44.780;20.408;2022-07-06T15:56:26;32.80;59.20
38848;DHT22;24602;44.780;20.408;2022-07-06T15:58:58;32.70;60.00
38848;DHT22;24602;44.780;20.408;2022-07-06T16:01:32;32.50;60.30
38848;DHT22;24602;44.780;20.408;2022-07-06T16:04:10;32.50;60.40
38848;DHT22;24602;44.780;20.408;2022-07-06T16:06:42;32.10;61.50
38848;DHT22;24602;44.780;20.408;2022-07-06T16:09:36;32.40;61.50
38848;DHT22;24602;44.780;20.408;2022-07-06T16:12:11;32.90;60.00
38848;DHT22;24602;44.780;20.408;2022-07-06T16:14:41;33.10;58.80
38848;DHT22;24602;44.780;20.408;2022-07-06T16:17:17;32.90;59.00
38848;DHT22;24602;44.780;20.408;2022-07-06T16:19:50;32.40;58.90